Time;durP1;ratioP1;P1;durP2;ratioP2;P2;SDS_P1;SDS_P2;PMS_P1;PMS_P2;Temp;Humidity;BMP_temperature;BMP_pressure;BME280_temperature;BME280_humidity;BME280_pressure;Samples;Min_cycle;Max_cycle;Signal;HPM_P1;HPM_P2
2023/07/08 00:00:48;;;;;;;11.93;7.33;;;15.00;99.90;;;;;;4991723;28;20923;-61
2023/07/08 00:03:14;;;;;;;11.20;7.17;;;14.90;99.90;;;;;;4997796;28;20435;-61
2023/07/08 00:05:40;;;;;;;9.93;7.97;;;14.80;99.90;;;;;;4998404;28;20417;-61
2023/07/08 00:08:20;;;;;;;9.00;7.33;;;14.80;1.00;;;;;;4998072;28;20419;-61
2023/07/08 00:10:46;;;;;;;11.10;7.13;;;14.80;1.00;;;;;;4998319;28;20861;-61
2023/07/08 00:13:11;;;;;;;9.60;7.43;;;14.70;1.00;;;;;;4998023;28;20456;-60
2023/07/08 00:15:40;;;;;;;9.80;7.97;;;14.70;1.00;;;;;;4996683;28;20232;-61
2023/07/08 00:18:12;;;;;;;9.33;8.20;;;14.60;1.00;;;;;;4997977;28;20190;-61
2023/07/08 00:20:44;;;;;;;9.20;8.20;;;14.60;1.00;;;;;;4998123;28;20798;-62
2023/07/08 00:23:10;;;;;;;10.17;7.77;;;14.50;1.00;;;;;;4997970;28;20772;-61
2023/07/08 00:25:36;;;;;;;10.53;7.83;;;14.50;1.00;;;;;;4997686;28;20923;-63
2023/07/08 00:28:04;;;;;;;10.27;7.50;;;14.50;1.00;;;;;;4997858;28;20406;-61
2023/07/08 00:30:31;;;;;;;10.67;7.77;;;14.40;1.00;;;;;;4997578;28;20440;-61
2023/07/08 00:32:58;;;;;;;11.83;7.40;;;14.40;1.00;;;;;;4997835;28;20820;-61
2023/07/08 00:35:31;;;;;;;11.73;7.93;;;14.40;1.00;;;;;;4997791;28;20498;-61
2023/07/08 00:38:01;;;;;;;12.13;7.30;;;14.30;1.00;;;;;;4997801;28;20401;-62
2023/07/08 00:40:31;;;;;;;8.17;6.90;;;14.30;14.60;;;;;;4997590;28;20508;-61
2023/07/08 00:42:59;;;;;;;12.50;7.30;;;14.20;22.70;;;;;;4998051;28;20416;-61
2023/07/08 00:45:46;;;;;;;8.70;7.80;;;14.20;42.50;;;;;;4997847;28;20457;-61
2023/07/08 00:48:28;;;;;;;10.83;8.37;;;14.10;89.00;;;;;;4997767;28;20491;-61
2023/07/08 00:50:54;;;;;;;14.03;8.10;;;14.10;99.90;;;;;;4997470;28;20403;-62
2023/07/08 00:53:25;;;;;;;9.10;8.17;;;14.10;99.90;;;;;;4997424;28;20923;-61
2023/07/08 00:55:53;;;;;;;8.17;7.37;;;14.10;99.90;;;;;;4997813;28;20416;-63
2023/07/08 00:58:22;;;;;;;7.90;7.10;;;14.00;99.90;;;;;;4997712;28;20418;-61
2023/07/08 01:00:49;;;;;;;13.90;8.50;;;14.00;99.90;;;;;;4997671;28;20457;-62
2023/07/08 01:03:17;;;;;;;10.90;8.30;;;13.90;99.90;;;;;;4997727;28;20749;-61
2023/07/08 01:05:44;;;;;;;11.97;8.33;;;13.90;99.90;;;;;;4997097;28;20422;-60
2023/07/08 01:08:09;;;;;;;13.50;9.07;;;13.80;1.00;;;;;;4997341;28;20460;-61
2023/07/08 01:10:52;;;;;;;9.93;8.93;;;13.80;1.00;;;;;;4997666;28;20449;-62
2023/07/08 01:13:21;;;;;;;10.33;9.10;;;13.70;17.90;;;;;;4995830;28;20180;-63
2023/07/08 01:15:48;;;;;;;8.77;7.60;;;13.70;99.90;;;;;;4993957;28;20427;-62
2023/07/08 01:18:16;;;;;;;10.50;8.97;;;13.70;99.90;;;;;;4994655;28;20438;-61
2023/07/08 01:20:43;;;;;;;9.80;8.80;;;13.60;99.90;;;;;;4994232;28;20466;-58
2023/07/08 01:23:12;;;;;;;12.00;9.23;;;13.60;99.90;;;;;;4993829;28;20442;-61
2023/07/08 01:25:38;;;;;;;13.00;8.90;;;13.50;99.90;;;;;;4993897;28;20419;-62
2023/07/08 01:28:04;;;;;;;10.57;8.77;;;13.50;1.00;;;;;;4993900;28;20425;-61
2023/07/08 01:30:30;;;;;;;9.53;8.47;;;13.50;1.00;;;;;;4993454;28;20415;-61
2023/07/08 01:32:59;;;;;;;11.47;9.13;;;13.40;1.00;;;;;;4993339;28;20793;-61
2023/07/08 01:35:25;;;;;;;9.87;8.90;;;13.40;1.00;;;;;;4993523;28;20229;-61
2023/07/08 01:37:58;;;;;;;14.60;8.97;;;13.40;99.90;;;;;;4994043;28;20454;-60
2023/07/08 01:40:24;;;;;;;10.03;8.93;;;13.40;99.90;;;;;;4993996;28;20205;-60
2023/07/08 01:42:50;;;;;;;10.73;9.53;;;13.30;99.90;;;;;;4993677;28;20423;-64
2023/07/08 01:45:18;;;;;;;14.07;9.57;;;13.40;99.90;;;;;;4993361;28;20643;-61
2023/07/08 01:47:52;;;;;;;11.30;9.57;;;13.30;99.90;;;;;;4993137;28;20191;-61
2023/07/08 01:50:19;;;;;;;14.27;9.80;;;13.30;1.00;;;;;;4993600;28;20467;-61
2023/07/08 01:52:46;;;;;;;10.00;8.90;;;13.30;1.00;;;;;;4993472;28;20415;-61
2023/07/08 01:55:12;;;;;;;175.80;99.47;;;13.30;1.10;;;;;;4992648;28;20484;-61
2023/07/08 01:57:37;;;;;;;212.60;133.63;;;13.30;70.60;;;;;;4993463;28;20423;-61
2023/07/08 02:00:03;;;;;;;78.90;53.33;;;13.30;99.90;;;;;;4993178;28;20211;-62
2023/07/08 02:02:29;;;;;;;85.03;50.63;;;13.30;99.90;;;;;;4993367;28;20627;-62
2023/07/08 02:04:55;;;;;;;38.83;26.60;;;13.30;99.90;;;;;;4993740;28;20422;-60
2023/07/08 02:07:20;;;;;;;18.27;12.33;;;13.30;99.90;;;;;;4993266;28;20476;-60
2023/07/08 02:09:46;;;;;;;10.73;9.63;;;13.30;99.90;;;;;;4992560;28;20229;-60
2023/07/08 02:12:12;;;;;;;14.90;9.90;;;13.20;99.90;;;;;;4992603;28;20178;-61
2023/07/08 02:14:37;;;;;;;13.17;10.07;;;13.20;99.90;;;;;;4992837;28;20207;-61
2023/07/08 02:17:05;;;;;;;12.80;9.73;;;13.20;99.90;;;;;;4992439;28;20645;-58
2023/07/08 02:19:31;;;;;;;13.13;8.70;;;13.10;1.00;;;;;;4992314;28;20223;-61
2023/07/08 02:21:57;;;;;;;11.57;9.43;;;13.10;1.00;;;;;;4992199;28;20499;-61
2023/07/08 02:24:23;;;;;;;13.37;10.07;;;13.10;99.90;;;;;;4992867;28;20265;-62
2023/07/08 02:26:49;;;;;;;12.27;9.10;;;13.10;99.90;;;;;;4992329;28;20513;-60
2023/07/08 02:29:15;;;;;;;14.67;9.67;;;13.10;99.90;;;;;;4992704;28;20632;-60
2023/07/08 02:31:40;;;;;;;13.80;9.80;;;13.10;1.00;;;;;;4992769;28;20503;-61
2023/07/08 02:34:06;;;;;;;15.40;9.60;;;13.00;1.00;;;;;;4992717;28;20217;-62
2023/07/08 02:36:34;;;;;;;12.80;9.70;;;13.00;1.00;;;;;;4992880;28;20179;-61
2023/07/08 02:38:59;;;;;;;10.70;9.60;;;13.00;1.00;;;;;;4992924;28;20286;-60
2023/07/08 02:41:25;;;;;;;13.37;9.93;;;13.00;1.00;;;;;;4992754;28;20544;-61
2023/07/08 02:43:50;;;;;;;10.87;9.50;;;13.10;99.90;;;;;;4992795;28;20706;-60
2023/07/08 02:46:16;;;;;;;10.13;8.70;;;13.00;1.00;;;;;;4992700;28;20216;-62
2023/07/08 02:48:41;;;;;;;11.07;8.90;;;13.00;99.90;;;;;;4992443;28;20194;-60
2023/07/08 02:51:08;;;;;;;12.43;9.17;;;13.00;99.90;;;;;;4992386;28;20187;-61
2023/07/08 02:53:35;;;;;;;14.10;9.20;;;13.00;1.00;;;;;;4992121;28;20269;-60
2023/07/08 02:56:00;;;;;;;12.77;9.73;;;13.00;1.00;;;;;;4992827;28;20425;-60
2023/07/08 02:58:26;;;;;;;10.97;9.43;;;13.00;1.00;;;;;;4992308;28;20415;-60
2023/07/08 03:00:53;;;;;;;12.17;9.80;;;13.00;1.00;;;;;;4992366;28;20677;-60
2023/07/08 03:03:18;;;;;;;14.80;9.60;;;13.00;1.00;;;;;;4992532;28;20548;-59
2023/07/08 03:05:44;;;;;;;10.83;9.20;;;13.10;1.00;;;;;;4992237;28;20413;-59
2023/07/08 03:08:09;;;;;;;12.63;9.70;;;13.10;99.90;;;;;;4992413;28;20179;-60
2023/07/08 03:10:35;;;;;;;10.83;9.73;;;13.00;99.90;;;;;;4992235;28;20182;-61
2023/07/08 03:13:00;;;;;;;12.80;9.53;;;13.00;99.90;;;;;;4992431;28;20271;-60
2023/07/08 03:15:26;;;;;;;16.93;10.50;;;13.10;99.90;;;;;;4992516;28;20183;-61
2023/07/08 03:17:57;;;;;;;13.57;8.83;;;13.00;99.90;;;;;;4992618;28;20525;-59
2023/07/08 03:20:22;;;;;;;9.60;8.70;;;13.10;88.80;;;;;;4992126;28;20734;-60
2023/07/08 03:22:48;;;;;;;12.60;9.80;;;13.10;1.00;;;;;;4992333;28;20511;-59
2023/07/08 03:25:14;;;;;;;13.07;9.57;;;13.10;99.90;;;;;;4991670;28;20187;-60
2023/07/08 03:27:39;;;;;;;10.93;9.30;;;13.10;1.00;;;;;;4992160;28;20263;-59
2023/07/08 03:30:05;;;;;;;9.97;8.97;;;13.10;1.00;;;;;;4992190;28;20195;-60
2023/07/08 03:32:31;;;;;;;20.30;10.40;;;13.10;1.00;;;;;;4991947;28;20220;-60
2023/07/08 03:34:56;;;;;;;10.20;8.70;;;13.10;1.00;;;;;;4991801;28;20433;-60
2023/07/08 03:37:22;;;;;;;12.53;8.77;;;13.00;99.90;;;;;;4991113;28;20261;-58
2023/07/08 03:39:48;;;;;;;11.27;9.20;;;13.00;1.00;;;;;;4991818;28;20210;-62
2023/07/08 03:42:13;;;;;;;11.23;9.20;;;13.00;1.00;;;;;;4992398;28;20265;-59
2023/07/08 03:44:39;;;;;;;12.93;10.33;;;13.00;99.90;;;;;;4991676;28;20214;-60
2023/07/08 03:47:04;;;;;;;10.50;9.40;;;13.00;1.00;;;;;;4992038;28;20193;-60
2023/07/08 03:49:30;;;;;;;10.60;9.50;;;13.10;48.30;;;;;;4991815;28;20193;-60
2023/07/08 03:51:56;;;;;;;13.77;9.10;;;13.10;1.00;;;;;;4991336;28;20194;-60
2023/07/08 03:54:23;;;;;;;26.83;9.47;;;13.10;99.90;;;;;;4991419;28;20293;-59
2023/07/08 03:56:49;;;;;;;11.30;9.57;;;13.20;99.90;;;;;;4991875;28;20183;-59
2023/07/08 03:59:15;;;;;;;11.37;8.30;;;13.20;1.00;;;;;;4991694;28;20436;-60
2023/07/08 04:01:40;;;;;;;12.23;9.10;;;13.40;99.20;;;;;;4991844;28;20646;-59
2023/07/08 04:04:09;;;;;;;10.23;8.00;;;13.40;1.00;;;;;;4991464;28;20647;-60
2023/07/08 04:06:35;;;;;;;13.33;8.27;;;13.60;1.00;;;;;;4991388;28;20174;-60
2023/07/08 04:09:00;;;;;;;10.33;8.33;;;13.60;99.90;;;;;;4991576;28;20409;-59
2023/07/08 04:11:26;;;;;;;14.87;9.17;;;13.70;99.90;;;;;;4991541;28;20656;-60
2023/07/08 04:13:52;;;;;;;8.73;7.60;;;13.80;1.00;;;;;;4991240;28;20596;-60
2023/07/08 04:16:28;;;;;;;8.40;7.60;;;13.90;1.00;;;;;;4991461;28;20206;-59
2023/07/08 04:18:53;;;;;;;9.27;7.97;;;14.00;99.90;;;;;;4991504;28;20538;-60
2023/07/08 04:21:20;;;;;;;11.50;8.90;;;14.00;1.00;;;;;;5022728;28;20473;-59
2023/07/08 04:23:46;;;;;;;9.73;8.17;;;14.10;99.90;;;;;;4991425;28;20827;-58
2023/07/08 04:26:11;;;;;;;8.33;7.33;;;14.20;7.60;;;;;;4991137;28;20418;-60
2023/07/08 04:28:37;;;;;;;7.93;7.17;;;14.30;1.00;;;;;;4991147;28;20183;-59
2023/07/08 04:31:03;;;;;;;9.27;7.00;;;14.40;99.90;;;;;;4991101;28;20197;-59
2023/07/08 04:33:30;;;;;;;8.80;6.77;;;14.50;99.90;;;;;;4991340;28;20183;-60
2023/07/08 04:35:56;;;;;;;11.83;7.40;;;14.70;1.00;;;;;;4991325;28;20423;-59
2023/07/08 04:38:24;;;;;;;8.33;6.80;;;14.80;99.90;;;;;;4991358;28;20830;-59
2023/07/08 04:40:50;;;;;;;11.57;7.43;;;15.00;99.90;;;;;;4991484;28;20553;-59
2023/07/08 04:43:17;;;;;;;7.27;6.57;;;15.20;1.00;;;;;;4991070;28;20517;-60
2023/07/08 04:45:52;;;;;;;10.53;6.33;;;15.40;1.00;;;;;;4991474;28;20765;-58
2023/07/08 04:48:21;;;;;;;10.80;7.00;;;15.70;1.00;;;;;;4991653;28;20419;-60
2023/07/08 04:50:48;;;;;;;6.83;6.20;;;15.80;99.90;;;;;;4994162;28;20426;-61
2023/07/08 04:53:14;;;;;;;9.07;5.83;;;16.10;99.90;;;;;;4994473;28;20422;-61
2023/07/08 04:55:46;;;;;;;6.40;5.80;;;16.30;99.90;;;;;;4994432;28;20989;-61
2023/07/08 04:58:12;;;;;;;7.60;6.00;;;16.40;99.90;;;;;;4994531;28;20333;-61
2023/07/08 05:00:38;;;;;;;7.77;5.77;;;16.60;95.40;;;;;;4994532;28;20550;-61
2023/07/08 05:03:03;;;;;;;12.03;6.33;;;16.70;34.60;;;;;;5005460;28;20545;-62
2023/07/08 05:05:29;;;;;;;9.43;6.30;;;17.00;1.00;;;;;;5092460;28;20195;-62
2023/07/08 05:07:55;;;;;;;9.37;6.23;;;17.20;1.00;;;;;;5091709;28;20220;-63
2023/07/08 05:10:21;;;;;;;13.33;5.67;;;17.40;1.00;;;;;;5092788;28;20191;-61
2023/07/08 05:12:48;;;;;;;7.53;5.77;;;17.60;1.00;;;;;;5094125;28;20770;-60
2023/07/08 05:15:14;;;;;;;6.83;5.20;;;17.70;1.00;;;;;;5093841;28;20438;-61
2023/07/08 05:17:40;;;;;;;10.30;5.13;;;17.90;1.00;;;;;;5093831;28;20534;-61
2023/07/08 05:20:12;;;;;;;11.10;5.50;;;18.10;1.00;;;;;;5093533;28;20557;-61
2023/07/08 05:22:37;;;;;;;7.00;5.30;;;18.20;1.00;;;;;;5093721;28;20206;-61
2023/07/08 05:25:05;;;;;;;11.50;5.57;;;18.40;1.00;;;;;;5093648;28;20434;-61
2023/07/08 05:27:30;;;;;;;6.57;5.27;;;18.60;1.00;;;;;;5093780;28;20241;-61
2023/07/08 05:29:56;;;;;;;6.03;5.10;;;18.80;1.00;;;;;;5095985;28;20420;-61
2023/07/08 05:32:22;;;;;;;6.80;4.80;;;19.00;1.00;;;;;;5089170;28;20206;-61
2023/07/08 05:34:48;;;;;;;8.43;4.80;;;19.20;1.00;;;;;;5096184;28;20276;-60
2023/07/08 05:37:14;;;;;;;6.30;5.10;;;19.30;1.00;;;;;;5081744;28;20994;-61
2023/07/08 05:39:40;;;;;;;8.30;5.17;;;19.50;1.00;;;;;;5093719;28;20661;-61
2023/07/08 05:42:06;;;;;;;9.00;5.07;;;19.60;1.00;;;;;;5074793;28;20451;-61
2023/07/08 05:44:31;;;;;;;5.70;4.60;;;19.80;1.00;;;;;;5072389;28;20224;-61
2023/07/08 05:46:57;;;;;;;6.70;4.03;;;20.00;1.00;;;;;;5092552;28;20416;-61
2023/07/08 05:49:23;;;;;;;5.40;4.53;;;20.20;1.00;;;;;;5095924;28;20264;-61
2023/07/08 05:51:48;;;;;;;5.33;4.77;;;20.40;1.00;;;;;;5092926;28;20211;-61
2023/07/08 05:54:14;;;;;;;6.10;5.00;;;20.60;1.00;;;;;;5092922;28;20232;-61
2023/07/08 05:56:40;;;;;;;8.03;4.43;;;20.80;1.00;;;;;;5088473;28;20232;-61
2023/07/08 05:59:05;;;;;;;8.90;4.80;;;21.00;1.00;;;;;;5085705;28;20438;-60
2023/07/08 06:01:32;;;;;;;5.50;4.20;;;21.00;1.00;;;;;;5065478;28;20210;-60
2023/07/08 06:04:00;;;;;;;6.10;4.50;;;21.30;1.00;;;;;;4993562;28;20186;-60
2023/07/08 06:06:27;;;;;;;9.60;4.80;;;21.50;1.00;;;;;;4993914;28;20421;-60
2023/07/08 06:08:53;;;;;;;4.37;3.73;;;21.70;1.00;;;;;;4993456;28;20506;-61
2023/07/08 06:11:18;;;;;;;5.33;4.33;;;21.80;1.00;;;;;;4993301;28;20437;-61
2023/07/08 06:13:44;;;;;;;5.33;4.33;;;21.90;1.00;;;;;;4993616;28;20419;-60
2023/07/08 06:16:10;;;;;;;5.27;3.93;;;22.00;1.00;;;;;;4992989;28;20183;-61
2023/07/08 06:18:35;;;;;;;4.93;4.33;;;22.20;1.00;;;;;;4993471;28;20691;-61
2023/07/08 06:21:02;;;;;;;10.73;4.17;;;22.30;1.00;;;;;;4993238;28;20208;-61
2023/07/08 06:23:29;;;;;;;6.83;3.80;;;22.50;1.00;;;;;;4993351;28;20529;-61
2023/07/08 06:25:54;;;;;;;6.90;4.23;;;22.50;1.00;;;;;;4993175;28;20419;-60
2023/07/08 06:28:20;;;;;;;4.20;3.77;;;22.50;1.00;;;;;;4992640;28;20434;-59
2023/07/08 06:30:46;;;;;;;4.80;3.63;;;22.80;1.00;;;;;;4993060;28;20188;-59
2023/07/08 06:33:12;;;;;;;9.10;3.60;;;23.00;1.00;;;;;;4992814;28;20514;-59
2023/07/08 06:35:39;;;;;;;9.13;4.30;;;23.20;1.00;;;;;;4993220;28;20180;-61
2023/07/08 06:38:06;;;;;;;6.60;3.63;;;23.20;1.00;;;;;;4992974;28;20636;-59
2023/07/08 06:40:32;;;;;;;5.00;3.70;;;23.40;1.00;;;;;;4993042;28;20459;-59
2023/07/08 06:42:57;;;;;;;5.07;3.63;;;23.60;1.00;;;;;;4992789;28;20506;-59
2023/07/08 06:45:23;;;;;;;9.63;3.80;;;23.70;1.00;;;;;;4992969;28;20996;-59
2023/07/08 06:47:48;;;;;;;4.23;3.53;;;23.80;1.00;;;;;;4992733;28;20181;-58
2023/07/08 06:50:14;;;;;;;5.70;3.83;;;24.00;1.00;;;;;;4992556;28;20562;-59
2023/07/08 06:52:40;;;;;;;6.13;3.20;;;24.10;1.00;;;;;;4992655;28;20189;-59
2023/07/08 06:55:08;;;;;;;5.97;3.57;;;24.30;1.00;;;;;;4992333;28;20270;-59
2023/07/08 06:57:34;;;;;;;5.77;4.20;;;24.60;1.00;;;;;;4992553;28;20223;-59
2023/07/08 07:00:00;;;;;;;6.33;3.70;;;24.80;1.00;;;;;;4992883;28;20495;-59
2023/07/08 07:02:26;;;;;;;5.13;3.40;;;24.90;1.00;;;;;;4992667;28;20196;-59
2023/07/08 07:04:52;;;;;;;4.67;3.63;;;25.10;1.00;;;;;;4992503;28;20923;-59
2023/07/08 07:07:18;;;;;;;6.10;3.63;;;25.30;99.90;;;;;;4991919;28;20423;-59
2023/07/08 07:09:43;;;;;;;4.07;3.67;;;25.50;99.90;;;;;;4992404;28;20192;-58
2023/07/08 07:12:09;;;;;;;5.10;3.80;;;25.60;99.90;;;;;;4991511;28;20671;-59
2023/07/08 07:14:35;;;;;;;4.80;3.77;;;25.70;99.90;;;;;;4992298;28;20185;-59
2023/07/08 07:17:00;;;;;;;7.87;3.90;;;25.70;99.90;;;;;;4992537;28;20184;-59
2023/07/08 07:19:26;;;;;;;4.13;3.67;;;25.90;99.90;;;;;;4992027;28;20316;-60
2023/07/08 07:21:52;;;;;;;4.80;3.93;;;26.10;99.90;;;;;;4992279;28;20263;-59
2023/07/08 07:24:18;;;;;;;5.40;3.80;;;26.30;99.90;;;;;;4991773;28;20184;-58
2023/07/08 07:26:44;;;;;;;6.97;3.83;;;26.40;99.90;;;;;;4992336;28;20659;-58
2023/07/08 07:29:09;;;;;;;5.00;3.43;;;26.60;99.90;;;;;;4992060;28;20441;-59
2023/07/08 07:31:35;;;;;;;6.23;3.23;;;26.70;99.90;;;;;;4992318;28;20649;-59
2023/07/08 07:34:02;;;;;;;6.10;3.63;;;26.80;99.90;;;;;;4992319;28;20185;-59
2023/07/08 07:36:28;;;;;;;5.07;3.43;;;26.80;99.90;;;;;;4992272;28;20552;-59
2023/07/08 07:38:54;;;;;;;4.70;3.50;;;27.00;99.90;;;;;;4992158;28;20416;-59
2023/07/08 07:41:20;;;;;;;4.70;3.50;;;27.30;99.90;;;;;;4991850;28;20520;-59
2023/07/08 07:43:46;;;;;;;3.83;3.43;;;27.60;99.90;;;;;;4992266;28;20193;-59
2023/07/08 07:46:12;;;;;;;3.50;3.10;;;28.00;99.90;;;;;;4991989;28;20572;-59
2023/07/08 07:48:38;;;;;;;4.30;3.63;;;28.20;99.90;;;;;;4992099;28;20189;-56
2023/07/08 07:51:05;;;;;;;6.03;3.90;;;28.30;99.90;;;;;;4992150;28;20427;-57
2023/07/08 07:53:31;;;;;;;3.30;3.00;;;28.40;99.90;;;;;;4991707;28;20181;-58
2023/07/08 07:56:01;;;;;;;4.53;3.77;;;28.60;99.90;;;;;;4991827;28;20906;-58
2023/07/08 07:58:27;;;;;;;10.80;3.47;;;28.80;99.90;;;;;;4991847;28;20457;-58
2023/07/08 08:00:53;;;;;;;4.37;3.80;;;28.80;99.90;;;;;;4991960;28;20797;-58
2023/07/08 08:03:20;;;;;;;3.93;3.47;;;29.10;99.90;;;;;;4991838;28;20423;-58
2023/07/08 08:05:46;;;;;;;4.80;3.40;;;29.30;99.90;;;;;;4991914;28;20181;-57
2023/07/08 08:08:11;;;;;;;3.60;3.27;;;29.50;99.90;;;;;;4991213;28;20419;-58
2023/07/08 08:10:37;;;;;;;4.63;3.40;;;29.60;99.90;;;;;;4991711;28;20424;-58
2023/07/08 08:13:03;;;;;;;4.67;3.60;;;29.80;99.90;;;;;;4991551;28;20177;-58
2023/07/08 08:15:29;;;;;;;5.97;3.50;;;30.00;99.90;;;;;;4991636;28;20217;-58
2023/07/08 08:17:55;;;;;;;4.23;3.30;;;30.10;99.90;;;;;;4991717;28;20420;-57
2023/07/08 08:20:23;;;;;;;5.80;3.90;;;30.20;99.90;;;;;;4991493;28;20542;-57
2023/07/08 08:22:48;;;;;;;4.40;3.17;;;30.20;99.90;;;;;;4992335;28;20478;-57
2023/07/08 08:25:15;;;;;;;4.53;3.50;;;30.30;99.90;;;;;;4994997;28;20412;-58
2023/07/08 08:27:41;;;;;;;3.87;3.50;;;30.50;99.90;;;;;;4994990;28;20264;-59
2023/07/08 08:30:07;;;;;;;7.20;3.23;;;30.70;99.90;;;;;;4994874;28;20452;-58
2023/07/08 08:32:32;;;;;;;3.13;2.83;;;30.90;99.90;;;;;;4994396;28;20687;-59
2023/07/08 08:34:58;;;;;;;27.10;21.53;;;30.90;99.90;;;;;;4994613;28;20448;-58
2023/07/08 08:37:23;;;;;;;7.90;6.43;;;31.10;99.90;;;;;;4994607;28;20582;-59
2023/07/08 08:39:49;;;;;;;4.73;4.00;;;31.10;99.90;;;;;;4994748;28;20255;-58
2023/07/08 08:42:33;;;;;;;6.20;2.80;;;31.20;99.90;;;;;;4994193;28;20242;-58
2023/07/08 08:45:01;;;;;;;5.30;3.00;;;31.40;99.90;;;;;;4994649;28;20184;-59
2023/07/08 08:47:43;;;;;;;6.40;3.07;;;31.20;99.90;;;;;;4994472;28;20434;-59
2023/07/08 08:50:18;;;;;;;5.63;3.40;;;31.30;99.90;;;;;;4994617;28;20428;-59
2023/07/08 08:52:44;;;;;;;4.80;3.20;;;31.50;99.90;;;;;;4994383;28;20418;-58
2023/07/08 08:55:14;;;;;;;4.30;3.40;;;31.80;99.90;;;;;;4993933;28;20472;-58
2023/07/08 08:58:14;;;;;;;3.47;2.70;;;31.90;99.90;;;;;;4994319;28;20522;-59
2023/07/08 09:00:39;;;;;;;3.37;3.07;;;32.20;99.90;;;;;;4994567;28;20463;-58
2023/07/08 09:03:14;;;;;;;7.10;2.80;;;32.30;99.90;;;;;;4994352;28;20783;-58
2023/07/08 09:05:42;;;;;;;3.50;3.20;;;32.30;99.90;;;;;;4994577;28;20279;-59
2023/07/08 09:08:27;;;;;;;3.83;3.20;;;32.40;99.90;;;;;;4994352;28;20424;-59
2023/07/08 09:11:01;;;;;;;3.70;3.27;;;32.10;99.90;;;;;;4994158;28;20435;-58
2023/07/08 09:13:36;;;;;;;3.50;3.20;;;32.00;99.90;;;;;;4993372;28;20448;-58
2023/07/08 09:16:24;;;;;;;4.10;3.10;;;31.80;99.90;;;;;;4993987;28;20428;-59
2023/07/08 09:18:52;;;;;;;3.70;3.00;;;32.10;99.90;;;;;;5023321;28;20463;-57
2023/07/08 09:21:27;;;;;;;5.60;3.43;;;32.00;99.90;;;;;;4993682;28;20517;-58
2023/07/08 09:24:00;;;;;;;3.70;3.30;;;32.00;99.90;;;;;;4994032;28;20884;-58
2023/07/08 09:26:30;;;;;;;3.87;2.90;;;32.30;99.90;;;;;;4992850;28;20876;-58
2023/07/08 09:28:55;;;;;;;3.70;3.40;;;32.60;99.90;;;;;;4993912;28;20429;-58
2023/07/08 09:31:28;;;;;;;6.40;3.30;;;32.70;99.90;;;;;;4994032;28;20416;-58
2023/07/08 09:34:10;;;;;;;3.40;3.20;;;32.90;99.90;;;;;;4993567;28;20166;-58
2023/07/08 09:36:40;;;;;;;3.30;3.00;;;33.30;99.90;;;;;;4994058;28;20409;-58
2023/07/08 09:39:11;;;;;;;4.23;3.30;;;33.60;99.90;;;;;;4994033;28;20454;-59
2023/07/08 09:41:38;;;;;;;4.87;3.20;;;33.60;99.90;;;;;;4993755;28;20460;-59
2023/07/08 09:44:16;;;;;;;2.93;2.73;;;33.20;99.90;;;;;;4993745;28;20874;-58
2023/07/08 09:46:43;;;;;;;3.87;3.37;;;33.10;99.90;;;;;;4993807;28;20408;-58
2023/07/08 09:49:20;;;;;;;5.13;3.40;;;33.30;99.90;;;;;;4993667;28;20505;-57
2023/07/08 09:51:46;;;;;;;3.73;2.93;;;33.50;99.90;;;;;;4993615;28;20469;-58
2023/07/08 09:54:12;;;;;;;3.67;3.30;;;33.60;99.90;;;;;;4993353;28;20476;-57
2023/07/08 09:56:43;;;;;;;3.50;3.30;;;33.60;99.90;;;;;;4993667;28;20499;-58
2023/07/08 09:59:15;;;;;;;4.93;3.20;;;33.80;99.90;;;;;;4993654;28;20180;-58
2023/07/08 10:01:42;;;;;;;4.73;3.13;;;34.10;99.90;;;;;;4993614;28;20460;-58
2023/07/08 10:04:08;;;;;;;6.33;3.17;;;34.30;99.90;;;;;;4993393;28;20447;-58
2023/07/08 10:06:35;;;;;;;4.53;2.90;;;34.30;99.90;;;;;;4993340;28;20923;-58
2023/07/08 10:09:04;;;;;;;3.50;3.20;;;34.30;99.90;;;;;;4993372;28;20199;-56
2023/07/08 10:11:33;;;;;;;4.70;3.10;;;34.30;99.90;;;;;;4993150;28;20428;-57
2023/07/08 10:14:25;;;;;;;4.43;3.10;;;34.30;99.90;;;;;;4993215;28;20408;-57
2023/07/08 10:16:50;;;;;;;5.17;2.93;;;34.30;99.90;;;;;;4993175;28;20505;-57
2023/07/08 10:19:19;;;;;;;5.70;3.30;;;34.40;99.90;;;;;;4992807;28;20536;-57
2023/07/08 10:21:59;;;;;;;3.40;3.10;;;34.60;99.90;;;;;;4993027;28;20211;-56
2023/07/08 10:24:36;;;;;;;3.40;3.10;;;34.70;99.90;;;;;;4992808;28;20511;-57
2023/07/08 10:27:32;;;;;;;4.73;3.00;;;35.00;99.90;;;;;;4993146;28;20405;-56
2023/07/08 10:30:06;;;;;;;9.10;3.20;;;35.20;99.90;;;;;;4992763;28;20387;-56
2023/07/08 10:32:44;;;;;;;4.03;2.83;;;35.20;99.90;;;;;;4993070;28;20415;-56
2023/07/08 10:35:26;;;;;;;6.23;3.90;;;35.10;99.90;;;;;;4992893;28;20754;-57
2023/07/08 10:38:31;;;;;;;4.23;3.00;;;35.10;99.90;;;;;;4992920;28;20867;-56
2023/07/08 10:41:04;;;;;;;3.40;3.10;;;35.00;99.90;;;;;;4992848;28;20810;-57
2023/07/08 10:43:36;;;;;;;3.33;3.03;;;35.00;99.90;;;;;;4992549;28;20420;-56
2023/07/08 10:46:40;;;;;;;3.60;3.40;;;35.10;99.90;;;;;;4992162;28;20404;-58
2023/07/08 10:49:18;;;;;;;6.57;3.27;;;35.00;99.90;;;;;;4992531;28;20639;-56
2023/07/08 10:51:58;;;;;;;3.77;3.17;;;35.10;99.90;;;;;;4992738;28;20438;-56
2023/07/08 10:54:46;;;;;;;4.70;3.40;;;35.40;99.90;;;;;;4992459;28;20838;-58
2023/07/08 10:57:42;;;;;;;4.93;2.97;;;35.50;99.90;;;;;;4992721;28;20427;-57
2023/07/08 11:00:19;;;;;;;4.83;3.57;;;35.50;99.90;;;;;;4992986;28;20452;-57
2023/07/08 11:03:18;;;;;;;4.37;3.17;;;35.30;99.90;;;;;;4992231;28;20899;-56
2023/07/08 11:05:46;;;;;;;3.87;3.10;;;35.50;99.90;;;;;;4992747;28;20424;-56
2023/07/08 11:08:50;;;;;;;5.60;3.43;;;35.90;99.90;;;;;;4992423;28;20432;-57
2023/07/08 11:11:42;;;;;;;9.63;3.50;;;36.20;99.90;;;;;;4992189;28;20916;-57
2023/07/08 11:14:26;;;;;;;6.30;3.10;;;35.80;99.90;;;;;;4998299;28;20436;-56
2023/07/08 11:17:16;;;;;;;5.27;3.43;;;36.00;99.90;;;;;;4992460;28;20492;-56
2023/07/08 11:20:07;;;;;;;4.07;3.30;;;36.10;99.90;;;;;;4992390;28;20408;-57
2023/07/08 11:22:36;;;;;;;3.90;3.20;;;36.20;99.90;;;;;;4992138;28;20475;-57
2023/07/08 11:25:05;;;;;;;4.03;3.40;;;36.10;99.90;;;;;;4991900;28;20424;-57
2023/07/08 11:27:40;;;;;;;3.33;3.03;;;36.20;99.90;;;;;;4992122;28;20417;-57
2023/07/08 11:30:14;;;;;;;3.37;2.90;;;36.50;99.90;;;;;;4992138;28;20472;-57
2023/07/08 11:32:42;;;;;;;5.60;3.40;;;36.60;99.90;;;;;;4992097;28;20408;-57
2023/07/08 11:35:27;;;;;;;3.20;2.90;;;36.40;99.90;;;;;;4991757;28;20421;-57
2023/07/08 11:37:53;;;;;;;6.10;3.20;;;36.60;99.90;;;;;;4992238;28;20757;-57
2023/07/08 11:40:23;;;;;;;7.97;3.50;;;36.70;99.90;;;;;;4992051;28;20863;-57
2023/07/08 11:43:00;;;;;;;3.23;3.00;;;36.70;99.90;;;;;;4991627;28;20984;-57
2023/07/08 11:45:31;;;;;;;4.03;3.60;;;36.90;99.90;;;;;;4992058;28;20511;-57
2023/07/08 11:48:15;;;;;;;9.13;4.00;;;37.00;99.90;;;;;;4992185;28;20462;-57
2023/07/08 11:50:43;;;;;;;4.63;3.20;;;37.00;99.90;;;;;;4992165;28;20416;-57
2023/07/08 11:53:30;;;;;;;6.27;3.73;;;36.90;99.90;;;;;;4991720;28;20398;-57
2023/07/08 11:56:02;;;;;;;5.10;3.20;;;36.70;99.90;;;;;;4991503;28;20430;-57
2023/07/08 11:58:49;;;;;;;4.27;3.60;;;36.90;99.90;;;;;;4991152;28;20436;-57
2023/07/08 12:01:20;;;;;;;4.87;3.37;;;37.10;99.90;;;;;;4991529;28;20456;-58
2023/07/08 12:03:59;;;;;;;4.53;3.13;;;37.20;99.90;;;;;;4991699;28;20443;-57
2023/07/08 12:06:29;;;;;;;4.17;3.47;;;37.50;99.90;;;;;;4991439;28;20415;-57
2023/07/08 12:08:57;;;;;;;3.83;3.37;;;37.30;99.90;;;;;;4991644;28;20416;-57
2023/07/08 12:11:34;;;;;;;5.43;3.40;;;37.40;99.90;;;;;;4991580;28;20460;-57
2023/07/08 12:14:03;;;;;;;4.30;3.27;;;37.40;99.90;;;;;;4991985;28;20523;-57
2023/07/08 12:16:30;;;;;;;5.23;3.00;;;37.50;99.90;;;;;;4991427;28;20927;-57
2023/07/08 12:18:58;;;;;;;5.00;3.10;;;37.50;99.90;;;;;;4991530;28;20402;-57
2023/07/08 12:21:27;;;;;;;3.73;3.37;;;37.50;99.90;;;;;;4991573;28;20459;-57
2023/07/08 12:23:53;;;;;;;5.70;3.10;;;37.20;99.90;;;;;;4991837;28;20463;-57
2023/07/08 12:26:20;;;;;;;3.60;3.03;;;37.20;99.90;;;;;;4991521;28;20393;-57
2023/07/08 12:28:46;;;;;;;3.20;3.00;;;37.30;99.90;;;;;;4991073;28;20406;-56
2023/07/08 12:31:17;;;;;;;5.47;3.20;;;37.10;99.90;;;;;;4991359;28;20420;-57
2023/07/08 12:33:44;;;;;;;4.50;3.40;;;37.10;99.90;;;;;;4991369;28;20165;-57
2023/07/08 12:36:14;;;;;;;3.40;3.10;;;37.30;99.90;;;;;;4991574;28;20761;-57
2023/07/08 12:38:44;;;;;;;5.17;3.73;;;37.10;99.90;;;;;;4991191;28;20436;-57
2023/07/08 12:41:14;;;;;;;5.60;3.20;;;37.20;99.90;;;;;;4991373;28;20464;-57
2023/07/08 12:43:39;;;;;;;3.27;2.97;;;37.20;99.90;;;;;;4991523;28;20454;-58
2023/07/08 12:46:08;;;;;;;5.80;3.30;;;37.20;99.90;;;;;;4991085;28;20394;-57
2023/07/08 12:48:34;;;;;;;3.20;2.93;;;37.20;99.90;;;;;;4991165;28;20185;-58
2023/07/08 12:51:00;;;;;;;4.60;3.47;;;37.10;99.90;;;;;;4991043;28;20439;-56
2023/07/08 12:53:26;;;;;;;4.30;3.27;;;37.10;99.90;;;;;;4990519;28;20907;-57
2023/07/08 12:55:57;;;;;;;4.13;3.30;;;36.80;99.90;;;;;;4991004;28;20223;-57